createdAt,value
2019-05-14T00:03:21.980Z,4.37
2019-05-14T00:08:31.384Z,4.83
2019-05-14T00:13:38.335Z,4.70
2019-05-14T00:18:45.565Z,4.60
2019-05-14T00:23:52.738Z,4.20
2019-05-14T00:29:01.674Z,3.97
2019-05-14T00:34:11.017Z,4.67
2019-05-14T00:39:17.443Z,5.17
2019-05-14T00:44:24.630Z,4.97
2019-05-14T00:49:31.814Z,5.07
2019-05-14T00:54:41.628Z,5.33
2019-05-14T00:59:49.154Z,5.93
2019-05-14T01:04:56.281Z,6.27
2019-05-14T01:10:03.552Z,5.77
2019-05-14T01:15:14.129Z,5.43
2019-05-14T01:20:21.284Z,6.60
2019-05-14T01:25:28.571Z,6.30
2019-05-14T01:30:36.499Z,6.43
2019-05-14T01:35:43.732Z,7.00
2019-05-14T01:40:52.503Z,7.27
2019-05-14T01:46:01.913Z,7.07
2019-05-14T01:51:11.720Z,7.40
2019-05-14T01:56:18.256Z,6.53
2019-05-14T02:01:25.566Z,5.27
2019-05-14T02:06:33.483Z,5.47
2019-05-14T02:11:41.582Z,4.60
2019-05-14T02:16:51.083Z,4.30
2019-05-14T02:21:57.768Z,4.30
2019-05-14T02:27:05.891Z,3.20
2019-05-14T02:32:13.037Z,2.93
2019-05-14T02:37:20.186Z,2.73
2019-05-14T02:42:29.004Z,2.43
2019-05-14T02:47:39.331Z,2.67
2019-05-14T02:52:45.537Z,2.40
2019-05-14T02:57:52.638Z,2.20
2019-05-14T03:03:00.140Z,2.20
2019-05-14T03:08:08.971Z,2.13
2019-05-14T03:13:16.259Z,1.90
2019-05-14T03:18:23.413Z,1.80
2019-05-14T03:23:30.879Z,1.50
2019-05-14T03:28:39.770Z,1.50
2019-05-14T03:33:51.812Z,1.47
2019-05-14T03:38:55.434Z,1.50
2019-05-14T03:44:02.624Z,1.97
2019-05-14T03:49:09.900Z,2.00
2019-05-14T03:54:19.439Z,1.70
2019-05-14T03:59:28.773Z,1.53
2019-05-14T04:04:35.367Z,1.50
2019-05-14T04:09:43.932Z,1.77
2019-05-14T04:14:54.001Z,1.67
2019-05-14T04:20:02.334Z,1.40
2019-05-14T04:25:11.475Z,1.80
2019-05-14T04:30:23.777Z,1.50
2019-05-14T04:35:29.619Z,2.03
2019-05-14T04:40:36.406Z,1.23
2019-05-14T04:45:43.476Z,1.20
2019-05-14T04:50:50.603Z,1.40
2019-05-14T04:56:00.058Z,1.30
2019-05-14T05:01:09.881Z,1.23
2019-05-14T05:06:18.984Z,1.07
2019-05-14T05:11:24.667Z,1.30
2019-05-14T05:16:31.785Z,1.13
2019-05-14T05:21:38.951Z,1.30
2019-05-14T05:26:48.671Z,1.10
2019-05-14T05:31:55.913Z,1.30
2019-05-14T05:37:03.039Z,1.10
2019-05-14T05:42:10.133Z,1.30
2019-05-14T05:47:18.335Z,1.00
2019-05-14T05:52:28.030Z,1.00
2019-05-14T05:57:34.560Z,1.30
2019-05-14T06:02:41.886Z,1.00
2019-05-14T06:07:49.070Z,1.00
2019-05-14T06:12:58.543Z,1.23
2019-05-14T06:18:15.118Z,1.37
2019-05-14T06:23:14.983Z,1.00
2019-05-14T06:28:22.180Z,1.17
2019-05-14T06:33:29.396Z,1.10
2019-05-14T06:38:38.751Z,0.80
2019-05-14T06:43:45.411Z,0.90
2019-05-14T06:48:52.497Z,0.87
2019-05-14T06:54:01.042Z,1.10
2019-05-14T06:59:08.962Z,0.80
2019-05-14T07:04:18.193Z,1.00
2019-05-14T07:09:25.291Z,1.20
2019-05-14T07:14:32.514Z,1.00
2019-05-14T07:19:39.719Z,1.23
2019-05-14T07:24:49.623Z,1.37
2019-05-14T07:29:58.348Z,1.33
2019-05-14T07:35:08.949Z,1.37
2019-05-14T07:40:19.134Z,1.07
2019-05-14T07:45:25.943Z,1.07
2019-05-14T07:50:34.260Z,1.03
2019-05-14T07:55:41.369Z,1.27
2019-05-14T08:00:49.128Z,1.00
2019-05-14T08:05:58.905Z,0.90
2019-05-14T08:11:08.750Z,1.00
2019-05-14T08:16:19.360Z,0.93
2019-05-14T08:21:28.355Z,0.73
2019-05-14T08:26:35.144Z,1.03
2019-05-14T08:31:42.237Z,0.80
2019-05-14T08:36:49.534Z,0.90
2019-05-14T08:42:03.556Z,0.83
2019-05-14T08:47:06.064Z,0.90
2019-05-14T08:52:16.163Z,0.90
2019-05-14T08:57:23.319Z,0.67
2019-05-14T09:02:30.499Z,0.87
2019-05-14T09:07:38.809Z,0.80
2019-05-14T09:12:46.015Z,0.80
2019-05-14T09:17:53.454Z,1.07
2019-05-14T09:23:02.058Z,0.70
2019-05-14T09:28:09.185Z,0.90
2019-05-14T09:33:18.689Z,0.60
2019-05-14T09:38:29.115Z,1.00
2019-05-14T09:43:38.998Z,0.77
2019-05-14T09:48:45.208Z,0.70
2019-05-14T09:53:52.462Z,0.70
2019-05-14T09:58:59.738Z,0.67
2019-05-14T10:04:09.040Z,0.70
2019-05-14T10:09:15.580Z,0.70
2019-05-14T10:14:22.642Z,0.95
2019-05-14T10:19:29.882Z,1.37
2019-05-14T10:24:38.580Z,0.97
2019-05-14T10:29:48.172Z,0.83
2019-05-14T10:34:55.682Z,0.80
2019-05-14T10:40:03.606Z,0.67
2019-05-14T10:45:13.027Z,0.90
2019-05-14T10:50:20.227Z,0.70
2019-05-14T10:55:28.020Z,0.70
2019-05-14T11:00:35.242Z,0.60
2019-05-14T11:05:42.346Z,0.80
2019-05-14T11:10:49.972Z,1.27
2019-05-14T11:15:59.595Z,0.80
2019-05-14T11:21:19.809Z,0.90
2019-05-14T11:26:18.458Z,0.87
2019-05-14T11:31:25.005Z,1.10
2019-05-14T11:36:32.087Z,1.10
2019-05-14T11:41:40.110Z,1.00
2019-05-14T11:46:57.259Z,0.80
2019-05-14T11:52:04.250Z,0.70
2019-05-14T11:57:11.131Z,0.80
2019-05-14T12:02:15.221Z,1.10
2019-05-14T12:07:22.616Z,0.70
2019-05-14T12:12:30.311Z,1.00
2019-05-14T12:17:39.407Z,0.90
2019-05-14T12:22:48.795Z,1.80
2019-05-14T12:27:58.941Z,1.07
2019-05-14T12:33:06.050Z,0.73
2019-05-14T12:38:13.358Z,0.82
2019-05-14T12:43:21.681Z,1.03
2019-05-14T12:48:29.817Z,0.70
2019-05-14T12:53:39.390Z,0.77
2019-05-14T12:58:48.978Z,0.80
2019-05-14T13:03:59.052Z,0.90
2019-05-14T13:09:09.369Z,0.80
2019-05-14T13:14:16.265Z,0.80
2019-05-14T13:19:23.579Z,0.60
2019-05-14T13:24:30.663Z,0.90
2019-05-14T13:29:39.828Z,0.90
2019-05-14T13:34:48.676Z,0.77
2019-05-14T13:39:59.193Z,0.90
2019-05-14T13:45:06.316Z,1.73
2019-05-14T13:50:14.366Z,1.60
2019-05-14T13:55:21.468Z,1.30
2019-05-14T14:00:29.900Z,1.03
2019-05-14T14:05:39.337Z,2.30
2019-05-14T14:10:51.677Z,1.40
2019-05-14T14:15:54.802Z,1.20
2019-05-14T14:21:01.918Z,2.97
2019-05-14T14:26:09.618Z,1.30
2019-05-14T14:31:18.960Z,1.10
2019-05-14T14:36:29.656Z,1.00
2019-05-14T14:41:35.389Z,0.80
2019-05-14T14:46:42.564Z,1.30
2019-05-14T14:51:50.665Z,1.20
2019-05-14T14:56:59.210Z,1.27
2019-05-14T15:02:09.946Z,1.00
2019-05-14T15:07:15.256Z,0.98
2019-05-14T15:12:22.363Z,1.30
2019-05-14T15:17:29.746Z,1.10
2019-05-14T15:22:36.872Z,0.90
2019-05-14T15:27:44.448Z,0.93
2019-05-14T15:32:51.537Z,1.40
2019-05-14T15:37:59.064Z,1.50
2019-05-14T15:43:06.406Z,1.70
2019-05-14T15:48:13.654Z,1.90
2019-05-14T15:53:20.935Z,1.57
2019-05-14T15:58:30.237Z,1.40
2019-05-14T16:03:37.132Z,1.60
2019-05-14T16:08:48.632Z,1.80
2019-05-14T16:13:54.911Z,1.60
2019-05-14T16:19:02.212Z,1.73
2019-05-14T16:24:09.514Z,2.33
2019-05-14T16:29:19.081Z,2.57
2019-05-14T16:34:25.495Z,3.10
2019-05-14T16:39:32.655Z,2.40
2019-05-14T16:44:39.748Z,2.00
2019-05-14T16:49:50.608Z,1.93
2019-05-14T16:55:17.296Z,1.53
2019-05-14T17:00:09.678Z,2.42
2019-05-14T17:05:17.175Z,1.73
2019-05-14T17:10:24.286Z,1.80
2019-05-14T17:15:32.197Z,1.70
2019-05-14T17:20:39.607Z,2.27
2019-05-14T17:25:48.524Z,2.10
2019-05-14T17:30:55.982Z,1.70
2019-05-14T17:36:03.237Z,1.20
2019-05-14T17:41:10.318Z,1.20
2019-05-14T17:46:18.384Z,1.60
2019-05-14T17:51:25.622Z,2.03
2019-05-14T17:56:32.745Z,2.10
2019-05-14T18:01:39.980Z,3.23
2019-05-14T18:06:48.846Z,2.23
2019-05-14T18:11:58.450Z,1.80
2019-05-14T18:17:05.904Z,2.57
2019-05-14T18:22:13.113Z,2.30
2019-05-14T18:27:20.230Z,1.87
2019-05-14T18:32:27.277Z,1.90
2019-05-14T18:37:34.369Z,2.40
2019-05-14T18:42:41.490Z,2.57
2019-05-14T18:47:48.692Z,2.23
2019-05-14T18:52:55.789Z,1.90
2019-05-14T18:58:02.969Z,1.77
2019-05-14T19:03:11.198Z,2.30
2019-05-14T19:08:18.341Z,1.40
2019-05-14T19:13:25.450Z,1.73
2019-05-14T19:18:32.656Z,1.87
2019-05-14T19:23:39.867Z,1.83
2019-05-14T19:28:48.557Z,1.53
2019-05-14T19:33:57.126Z,1.77
2019-05-14T19:39:07.760Z,1.80
2019-05-14T19:44:14.667Z,1.60
2019-05-14T19:49:21.791Z,1.70
2019-05-14T19:54:29.329Z,1.63
2019-05-14T19:59:38.334Z,1.60
2019-05-14T20:04:45.566Z,1.67
2019-05-14T20:09:53.788Z,1.90
2019-05-14T20:15:00.849Z,2.13
2019-05-14T20:20:11.204Z,2.37
2019-05-14T20:25:18.338Z,2.00
2019-05-14T20:30:25.409Z,1.87
2019-05-14T20:35:35.064Z,2.50
2019-05-14T20:40:41.520Z,2.30
2019-05-14T20:45:49.110Z,2.30
2019-05-14T20:50:58.443Z,2.03
2019-05-14T20:56:08.352Z,1.92
2019-05-14T21:01:14.924Z,2.13
2019-05-14T21:06:22.022Z,2.20
2019-05-14T21:11:29.115Z,2.40
2019-05-14T21:16:36.192Z,2.40
2019-05-14T21:21:44.208Z,2.00
2019-05-14T21:26:51.600Z,2.07
2019-05-14T21:32:01.546Z,2.00
2019-05-14T21:37:09.036Z,2.10
2019-05-14T21:42:19.239Z,3.00
2019-05-14T21:47:25.340Z,2.20
2019-05-14T21:52:32.525Z,2.20
2019-05-14T21:57:52.240Z,1.97
2019-05-14T22:03:13.873Z,2.10
2019-05-14T22:08:20.992Z,1.80
2019-05-14T22:13:28.478Z,2.47
2019-05-14T22:18:35.766Z,2.23
2019-05-14T22:23:42.946Z,1.70
2019-05-14T22:28:50.103Z,1.87
2019-05-14T22:33:58.237Z,2.00
2019-05-14T22:39:07.153Z,1.73
2019-05-14T22:44:14.219Z,1.80
2019-05-14T22:49:21.409Z,1.60
2019-05-14T22:54:29.090Z,1.90
2019-05-14T22:59:39.058Z,1.63
2019-05-14T23:04:45.167Z,1.60
2019-05-14T23:09:52.322Z,1.30
2019-05-14T23:14:59.426Z,1.87
2019-05-14T23:20:09.186Z,1.67
2019-05-14T23:25:18.427Z,1.47
2019-05-14T23:30:32.937Z,2.03
2019-05-14T23:35:41.133Z,1.70
2019-05-14T23:40:49.289Z,1.80
2019-05-14T23:45:58.375Z,1.60
2019-05-14T23:51:08.010Z,1.23
2019-05-14T23:56:14.735Z,1.20
